Time;durP1;ratioP1;P1;durP2;ratioP2;P2;SDS_P1;SDS_P2;PMS_P1;PMS_P2;Temp;Humidity;BMP_temperature;BMP_pressure;BME280_temperature;BME280_humidity;BME280_pressure;Samples;Min_cycle;Max_cycle;Signal;HPM_P1;HPM_P2
2022/08/13 00:00:48;;;;;;;0.70;0.70;;;;;;;18.81;54.56;100246.41;4953729;29;20964;-48
2022/08/13 00:03:17;;;;;;;1.67;1.23;;;;;;;18.74;54.72;100244.19;4956307;29;20470;-48
2022/08/13 00:06:08;;;;;;;0.80;0.70;;;;;;;18.80;54.96;100246.50;4956026;28;20858;-49
2022/08/13 00:08:51;;;;;;;0.80;0.60;;;;;;;18.78;54.77;100243.03;4943356;29;20476;-48
2022/08/13 00:12:56;;;;;;;1.10;0.70;;;;;;;18.61;55.76;100249.44;4955862;28;20945;-49
2022/08/13 00:14:31;;;;;;;3.93;1.13;;;;;;;18.58;55.21;100250.50;4949330;29;20491;-48
2022/08/13 00:17:12;;;;;;;2.50;0.70;;;;;;;18.57;55.46;100248.75;4956414;28;20952;-48
2022/08/13 00:19:42;;;;;;;2.70;0.90;;;;;;;18.59;55.43;100246.84;4956090;28;20940;-49
2022/08/13 00:22:18;;;;;;;4.07;1.07;;;;;;;18.49;55.54;100250.19;4948155;29;20980;-49
2022/08/13 00:25:00;;;;;;;2.77;1.10;;;;;;;18.52;55.64;100245.50;4955785;28;20474;-48
2022/08/13 00:27:29;;;;;;;1.20;0.93;;;;;;;18.41;56.30;100252.50;4950344;29;20456;-48
2022/08/13 00:30:17;;;;;;;36.47;1.10;;;;;;;18.19;56.57;100251.09;4956127;28;20809;-48
2022/08/13 00:32:52;;;;;;;0.83;0.83;;;;;;;18.18;57.03;100248.50;4955659;29;21000;-52
2022/08/13 00:35:22;;;;;;;1.47;0.70;;;;;;;18.19;57.28;100240.34;4943631;29;20988;-49
2022/08/13 00:37:58;;;;;;;0.90;0.80;;;;;;;18.31;56.91;100242.28;4942523;29;20456;-53
2022/08/13 00:40:29;;;;;;;1.77;1.53;;;;;;;18.13;57.49;100237.19;4945399;29;20479;-49
2022/08/13 00:43:03;;;;;;;11.30;0.87;;;;;;;18.10;57.37;100232.84;4955760;29;20462;-48
2022/08/13 00:45:32;;;;;;;1.23;1.13;;;;;;;18.07;57.90;100238.41;4946051;29;20524;-49
2022/08/13 00:50:44;;;;;;;2.67;1.10;;;;;;;18.01;58.04;100238.78;4955274;29;20451;-50
2022/08/13 00:53:18;;;;;;;2.47;0.80;;;;;;;18.12;57.74;100244.38;4955641;28;20491;-48
2022/08/13 00:55:55;;;;;;;4.30;0.80;;;;;;;18.23;57.34;100241.06;4953955;28;20470;-48
2022/08/13 00:58:23;;;;;;;1.53;1.30;;;;;;;18.00;58.00;100232.53;4965593;28;20447;-48
2022/08/13 01:00:56;;;;;;;1.40;1.13;;;;;;;18.06;58.70;100236.66;4942107;29;20964;-48
2022/08/13 01:03:26;;;;;;;0.80;0.63;;;;;;;18.03;58.39;100239.56;4955394;28;20447;-49
2022/08/13 01:06:12;;;;;;;1.70;1.57;;;;;;;17.88;58.45;100235.09;4952177;28;20486;-49
2022/08/13 01:08:46;;;;;;;2.07;1.27;;;;;;;17.94;58.08;100238.25;4955291;28;20457;-48
2022/08/13 01:11:23;;;;;;;9.53;0.70;;;;;;;17.95;58.25;100237.31;4955043;28;20490;-49
2022/08/13 01:13:51;;;;;;;0.87;0.70;;;;;;;17.85;58.52;100235.28;4954564;28;20517;-49
2022/08/13 01:16:19;;;;;;;0.77;0.70;;;;;;;17.67;58.96;100235.34;4954767;28;20497;-48
2022/08/13 01:18:51;;;;;;;1.30;0.67;;;;;;;17.71;58.88;100234.28;4954976;28;20966;-49
2022/08/13 01:21:24;;;;;;;1.00;0.67;;;;;;;17.52;59.37;100233.56;4954838;28;20869;-49
2022/08/13 01:24:10;;;;;;;0.63;0.50;;;;;;;17.61;59.11;100238.41;4943355;29;20455;-49
2022/08/13 01:26:39;;;;;;;1.47;0.97;;;;;;;17.59;59.25;100232.28;4954866;28;20573;-49
2022/08/13 01:29:16;;;;;;;3.80;0.60;;;;;;;17.60;59.33;100243.88;4945288;29;20459;-48
2022/08/13 01:31:44;;;;;;;1.33;0.80;;;;;;;17.59;59.42;100237.66;4951889;29;20459;-49
2022/08/13 01:34:13;;;;;;;1.43;0.60;;;;;;;17.36;60.83;100240.78;4954902;28;20522;-48
2022/08/13 01:36:53;;;;;;;1.20;0.90;;;;;;;17.47;59.98;100235.66;4949304;29;20539;-48
2022/08/13 01:39:23;;;;;;;0.87;0.83;;;;;;;17.51;60.26;100239.03;4948452;29;20458;-48
2022/08/13 01:41:55;;;;;;;3.90;1.07;;;;;;;17.49;60.09;100239.13;4954552;28;20459;-49
2022/08/13 01:44:24;;;;;;;9.80;0.87;;;;;;;17.67;59.70;100239.88;4953204;28;20462;-49
2022/08/13 01:52:40;;;;;;;2.43;0.50;;;;;;;17.51;60.44;100236.34;4954236;28;20518;-50
2022/08/13 01:55:07;;;;;;;0.80;0.77;;;;;;;17.33;60.60;100236.47;4954383;28;20495;-49
2022/08/13 01:57:37;;;;;;;1.00;0.87;;;;;;;17.31;60.66;100233.00;4963707;28;20820;-49
2022/08/13 02:00:20;;;;;;;0.80;0.70;;;;;;;17.13;61.00;100234.91;4944132;29;20447;-49
2022/08/13 02:02:54;;;;;;;0.70;0.60;;;;;;;16.93;62.10;100237.84;4953405;28;20500;-49
2022/08/13 02:05:22;;;;;;;6.90;1.47;;;;;;;17.12;61.63;100238.53;4954070;28;21005;-49
2022/08/13 02:08:12;;;;;;;0.63;0.50;;;;;;;16.89;61.98;100241.66;4954513;28;20443;-49
2022/08/13 02:10:45;;;;;;;8.13;1.00;;;;;;;16.80;62.78;100245.72;4954295;28;20489;-49
2022/08/13 02:13:14;;;;;;;1.50;0.93;;;;;;;16.64;63.14;100234.03;4954232;28;20538;-49
2022/08/13 02:15:45;;;;;;;10.43;1.20;;;;;;;16.75;63.45;100238.88;4953936;28;20566;-49
2022/08/13 02:18:20;;;;;;;0.70;0.53;;;;;;;16.92;62.84;100227.19;4953815;29;20457;-49
2022/08/13 02:20:59;;;;;;;0.80;0.70;;;;;;;16.82;62.90;100242.94;4942210;29;20459;-49
2022/08/13 02:23:31;;;;;;;3.90;1.07;;;;;;;16.90;63.27;100239.84;4953994;28;20462;-50
2022/08/13 02:26:18;;;;;;;1.23;0.53;;;;;;;16.99;62.84;100232.13;4954296;28;20889;-48
2022/08/13 02:28:45;;;;;;;1.40;0.70;;;;;;;16.84;62.95;100238.34;4941485;29;20459;-49
2022/08/13 02:31:15;;;;;;;1.17;0.73;;;;;;;16.85;62.69;100240.94;4948998;28;20519;-48
2022/08/13 02:34:03;;;;;;;0.93;0.83;;;;;;;16.48;64.79;100247.44;4954208;28;20494;-49
2022/08/13 02:36:34;;;;;;;6.43;0.80;;;;;;;16.56;63.95;100241.63;4953702;28;20475;-50
2022/08/13 02:39:08;;;;;;;1.50;0.77;;;;;;;16.46;64.32;100246.66;4941884;29;20514;-48
2022/08/13 02:41:38;;;;;;;1.10;1.00;;;;;;;16.50;64.00;100242.84;4953123;28;20574;-49
2022/08/13 02:44:17;;;;;;;0.93;0.77;;;;;;;16.36;63.57;100247.22;4952492;28;20447;-48
2022/08/13 02:46:50;;;;;;;0.70;0.70;;;;;;;16.50;63.24;100245.53;4943594;29;20462;-48
2022/08/13 02:49:17;;;;;;;0.90;0.70;;;;;;;16.25;64.68;100256.69;4953748;28;20459;-48
2022/08/13 02:51:46;;;;;;;0.70;0.60;;;;;;;16.40;64.68;100249.63;4953609;28;20465;-48
2022/08/13 02:54:33;;;;;;;1.00;0.70;;;;;;;16.35;64.92;100249.03;4953596;28;21078;-49
2022/08/13 02:57:01;;;;;;;1.20;1.00;;;;;;;16.36;65.05;100247.22;4963526;28;20837;-48
2022/08/13 02:59:30;;;;;;;1.00;0.70;;;;;;;16.24;65.45;100238.84;4949603;28;20547;-49
2022/08/13 03:02:17;;;;;;;0.80;0.60;;;;;;;16.27;65.68;100233.31;4951452;28;20447;-48
2022/08/13 03:04:47;;;;;;;0.80;0.70;;;;;;;16.37;65.53;100236.41;4953913;28;20514;-48
2022/08/13 03:07:13;;;;;;;1.00;0.80;;;;;;;16.21;66.04;100235.47;4940815;29;20841;-48
2022/08/13 03:09:41;;;;;;;0.60;0.43;;;;;;;16.38;65.51;100232.75;4942894;29;20933;-48
2022/08/13 03:12:14;;;;;;;0.70;0.40;;;;;;;16.40;66.06;100238.03;4953372;28;20888;-48
2022/08/13 03:14:41;;;;;;;1.80;0.30;;;;;;;16.38;65.76;100237.25;4945563;28;20496;-48
2022/08/13 03:17:08;;;;;;;1.07;0.97;;;;;;;16.52;66.14;100237.38;4950633;28;20535;-49
2022/08/13 03:19:48;;;;;;;0.70;0.50;;;;;;;16.27;66.17;100236.00;4953549;29;20467;-49
2022/08/13 03:22:16;;;;;;;0.70;0.63;;;;;;;16.08;66.75;100232.56;4953521;28;20514;-48
2022/08/13 03:24:43;;;;;;;0.70;0.50;;;;;;;15.99;67.26;100243.75;4945198;29;20495;-49
2022/08/13 03:27:11;;;;;;;2.23;0.80;;;;;;;16.10;66.90;100243.22;4956507;29;20451;-48
2022/08/13 03:29:40;;;;;;;0.90;0.80;;;;;;;15.90;67.67;100245.13;4957029;29;20491;-49
2022/08/13 03:32:27;;;;;;;1.00;0.57;;;;;;;15.93;67.38;100233.38;4954834;29;21023;-48
2022/08/13 03:35:13;;;;;;;3.67;0.80;;;;;;;15.77;67.40;100233.28;4956796;28;20498;-49
2022/08/13 03:37:42;;;;;;;2.93;0.70;;;;;;;15.83;67.22;100237.47;4945709;28;20456;-48
2022/08/13 03:40:12;;;;;;;1.53;0.77;;;;;;;15.72;67.62;100240.69;4956518;29;20531;-48
2022/08/13 03:42:41;;;;;;;0.90;0.87;;;;;;;15.66;68.11;100241.00;4956817;28;20475;-49
2022/08/13 03:45:19;;;;;;;2.30;2.10;;;;;;;15.79;67.58;100239.44;4952088;28;20874;-49
2022/08/13 03:47:45;;;;;;;3.63;0.80;;;;;;;15.83;67.10;100240.16;4954786;28;20470;-48
2022/08/13 03:50:13;;;;;;;3.43;1.00;;;;;;;15.76;67.40;100241.38;4946341;29;20447;-49
2022/08/13 03:52:42;;;;;;;0.80;0.60;;;;;;;15.74;68.07;100243.28;4956595;28;20823;-48
2022/08/13 03:55:11;;;;;;;1.33;0.80;;;;;;;15.44;68.98;100251.88;4956496;28;20499;-49
2022/08/13 03:57:44;;;;;;;1.70;1.60;;;;;;;15.30;70.51;100249.00;4966834;28;20861;-49
2022/08/13 04:00:38;;;;;;;0.73;0.70;;;;;;;15.28;69.91;100241.03;4951335;29;20458;-48
2022/08/13 04:03:20;;;;;;;1.03;0.63;;;;;;;15.43;69.39;100238.56;4947789;29;20454;-48
2022/08/13 04:05:49;;;;;;;0.90;0.50;;;;;;;15.54;69.90;100250.47;4953412;29;20558;-48
2022/08/13 04:08:23;;;;;;;6.23;0.67;;;;;;;15.41;70.50;100246.69;4956541;29;20479;-49
2022/08/13 04:10:49;;;;;;;0.60;0.50;;;;;;;15.54;69.66;100247.81;4947188;29;20477;-48
2022/08/13 04:13:21;;;;;;;1.00;0.70;;;;;;;15.62;69.56;100252.78;4956429;28;20458;-48
2022/08/13 04:16:15;;;;;;;0.70;0.60;;;;;;;15.72;69.21;100242.50;4946191;29;20491;-49
2022/08/13 04:18:45;;;;;;;2.30;0.50;;;;;;;15.72;69.10;100247.84;4943305;29;20455;-48
2022/08/13 04:21:14;;;;;;;3.30;1.00;;;;;;;15.63;69.31;100247.38;4955853;28;20459;-48
2022/08/13 04:23:48;;;;;;;1.63;0.90;;;;;;;15.48;70.06;100244.53;4956008;28;21069;-48
2022/08/13 04:26:16;;;;;;;1.10;0.60;;;;;;;15.68;69.59;100249.81;4944497;28;20476;-49
2022/08/13 04:29:04;;;;;;;0.90;0.60;;;;;;;15.65;69.23;100250.00;4944396;29;20542;-50
2022/08/13 04:31:32;;;;;;;0.90;0.90;;;;;;;15.51;70.08;100247.09;4954839;29;20463;-50
2022/08/13 04:34:15;;;;;;;1.13;0.60;;;;;;;15.54;69.74;100252.28;4955612;28;20494;-50
2022/08/13 04:37:02;;;;;;;0.67;0.53;;;;;;;15.37;70.18;100255.81;4954687;29;20458;-48
2022/08/13 04:39:30;;;;;;;0.70;0.53;;;;;;;15.27;70.51;100257.19;4955439;28;20837;-48
2022/08/13 04:42:16;;;;;;;1.10;0.50;;;;;;;15.21;70.86;100258.34;4953479;29;20443;-49
2022/08/13 04:45:06;;;;;;;3.13;1.10;;;;;;;15.52;70.03;100254.19;4943339;28;20455;-48
2022/08/13 04:47:38;;;;;;;0.80;0.77;;;;;;;15.55;69.85;100257.56;4942543;29;20495;-48
2022/08/13 04:50:06;;;;;;;0.93;0.83;;;;;;;15.38;70.55;100260.22;4955652;28;20956;-49
2022/08/13 04:52:37;;;;;;;1.23;0.60;;;;;;;15.67;69.56;100251.63;4953133;28;20451;-49
2022/08/13 04:55:05;;;;;;;0.73;0.73;;;;;;;15.66;69.69;100251.72;4944952;29;20503;-48
2022/08/13 04:57:41;;;;;;;3.33;0.70;;;;;;;15.54;70.75;100263.00;4967047;28;20471;-49
2022/08/13 05:00:24;;;;;;;4.50;1.33;;;;;;;15.60;70.61;100265.41;4943161;29;21025;-49
2022/08/13 05:02:54;;;;;;;0.60;0.50;;;;;;;15.84;69.91;100260.63;4954802;29;20521;-49
2022/08/13 05:05:24;;;;;;;0.83;0.83;;;;;;;16.90;67.00;100264.88;4955166;28;20466;-49
2022/08/13 05:07:52;;;;;;;1.00;0.90;;;;;;;17.72;63.49;100262.88;4955183;29;20455;-50
2022/08/13 05:10:19;;;;;;;1.13;0.70;;;;;;;18.00;62.25;100263.94;4942580;29;20488;-49
2022/08/13 05:12:58;;;;;;;0.80;0.80;;;;;;;18.70;59.77;100258.81;4954967;28;20874;-49
2022/08/13 05:15:29;;;;;;;0.60;0.50;;;;;;;19.24;57.94;100268.75;4942018;29;20499;-50
2022/08/13 05:18:14;;;;;;;1.17;1.07;;;;;;;20.05;55.89;100268.78;4955013;28;21126;-49
2022/08/13 05:20:53;;;;;;;1.03;0.93;;;;;;;20.25;55.13;100275.50;4943713;29;20450;-49
2022/08/13 05:23:21;;;;;;;1.40;0.90;;;;;;;20.74;53.46;100272.13;4955325;28;20530;-50
2022/08/13 05:26:10;;;;;;;0.80;0.80;;;;;;;20.96;52.93;100276.84;4955711;28;20482;-49
2022/08/13 05:28:58;;;;;;;3.03;1.33;;;;;;;21.12;52.65;100279.31;4955502;29;20456;-51
2022/08/13 05:31:28;;;;;;;0.77;0.70;;;;;;;21.38;51.15;100286.44;4955124;28;20455;-50
2022/08/13 05:34:03;;;;;;;0.70;0.57;;;;;;;21.17;51.60;100285.25;4955416;28;20821;-50
2022/08/13 05:36:31;;;;;;;3.03;0.70;;;;;;;21.14;52.11;100277.38;4955689;28;20538;-50
2022/08/13 05:39:18;;;;;;;7.50;1.87;;;;;;;21.21;51.93;100284.91;4955658;28;20443;-49
2022/08/13 05:41:48;;;;;;;0.90;0.80;;;;;;;21.22;51.71;100283.06;4942082;28;20463;-49
2022/08/13 05:44:34;;;;;;;0.80;0.60;;;;;;;21.47;51.55;100288.44;4952315;28;20451;-50
2022/08/13 05:47:05;;;;;;;2.13;1.27;;;;;;;21.28;51.74;100298.88;4944390;29;20451;-49
2022/08/13 05:49:33;;;;;;;0.90;0.80;;;;;;;21.48;51.34;100300.13;4954904;28;20836;-50
2022/08/13 05:52:19;;;;;;;2.23;1.80;;;;;;;21.61;50.94;100295.53;4955152;28;20447;-50
2022/08/13 05:55:09;;;;;;;6.20;0.97;;;;;;;21.54;51.53;100294.28;4946085;29;20991;-50
2022/08/13 05:57:57;;;;;;;2.10;0.83;;;;;;;21.91;49.99;100296.91;4965285;28;20451;-50
2022/08/13 06:03:27;;;;;;;0.90;0.77;;;;;;;21.84;49.87;100286.56;4941680;29;20445;-50
2022/08/13 06:06:16;;;;;;;4.27;1.80;;;;;;;22.05;49.96;100294.03;4943427;28;20467;-50
2022/08/13 06:08:56;;;;;;;1.10;1.00;;;;;;;22.32;49.77;100297.34;4944121;29;20444;-50
2022/08/13 06:11:23;;;;;;;3.43;1.47;;;;;;;22.46;49.29;100290.88;4944462;28;20527;-51
2022/08/13 06:14:17;;;;;;;1.43;1.33;;;;;;;22.27;49.88;100293.28;4942895;29;20984;-50
2022/08/13 06:16:45;;;;;;;15.20;0.90;;;;;;;22.25;50.01;100293.41;4943654;29;20482;-49
2022/08/13 06:19:26;;;;;;;7.83;1.17;;;;;;;22.51;49.70;100285.97;4942869;29;20447;-50
2022/08/13 06:22:02;;;;;;;4.60;1.17;;;;;;;22.51;50.23;100285.97;4943832;29;20531;-50
2022/08/13 06:24:32;;;;;;;1.40;1.10;;;;;;;22.42;50.30;100282.13;4945870;28;20466;-51
2022/08/13 06:27:04;;;;;;;0.87;0.73;;;;;;;22.12;50.80;100276.38;4953240;28;20467;-50
2022/08/13 06:29:43;;;;;;;1.07;0.90;;;;;;;22.08;51.38;100278.47;4954248;28;20462;-50
2022/08/13 06:32:20;;;;;;;1.00;1.00;;;;;;;21.88;51.89;100284.47;4941701;29;20534;-51
2022/08/13 06:35:08;;;;;;;1.17;0.80;;;;;;;22.06;51.79;100279.53;4941089;29;20512;-50
2022/08/13 06:37:41;;;;;;;4.00;0.93;;;;;;;22.05;52.49;100284.09;4954102;28;20451;-49
2022/08/13 06:40:20;;;;;;;1.07;0.97;;;;;;;22.12;52.46;100282.66;4947984;28;20452;-51
2022/08/13 06:43:01;;;;;;;0.90;0.87;;;;;;;22.37;52.36;100284.34;4943919;29;20507;-50
2022/08/13 06:45:29;;;;;;;1.37;1.10;;;;;;;22.28;52.06;100276.06;4943712;29;20475;-50
2022/08/13 06:48:01;;;;;;;1.93;1.53;;;;;;;22.17;52.86;100285.84;4954215;28;20451;-50
2022/08/13 06:50:34;;;;;;;4.93;0.70;;;;;;;21.96;53.86;100283.91;4954262;28;20447;-51
2022/08/13 06:53:06;;;;;;;1.20;0.90;;;;;;;22.37;53.04;100283.47;4949051;28;20884;-50
2022/08/13 06:55:53;;;;;;;7.20;1.00;;;;;;;22.63;51.83;100281.44;4949959;28;20491;-51
2022/08/13 06:58:43;;;;;;;1.13;1.03;;;;;;;23.12;50.33;100280.25;4964578;28;20447;-50
2022/08/13 07:01:15;;;;;;;4.33;1.53;;;;;;;23.44;49.71;100283.06;4944986;29;20457;-50
2022/08/13 07:03:43;;;;;;;1.33;0.80;;;;;;;23.78;48.18;100283.84;4957756;28;20826;-50
2022/08/13 07:06:25;;;;;;;1.23;1.10;;;;;;;23.92;48.37;100284.41;4946478;29;20554;-50
2022/08/13 07:08:56;;;;;;;1.07;0.97;;;;;;;23.93;47.85;100282.56;4944740;29;20452;-50
2022/08/13 07:11:27;;;;;;;1.67;0.87;;;;;;;24.41;47.14;100295.72;4957746;28;20505;-51
2022/08/13 07:14:06;;;;;;;0.90;0.70;;;;;;;23.74;48.11;100287.84;4952411;28;20459;-49
2022/08/13 07:16:40;;;;;;;0.97;0.97;;;;;;;23.54;48.32;100287.59;4950429;29;21065;-50
2022/08/13 07:19:11;;;;;;;0.90;0.80;;;;;;;23.75;47.75;100290.41;4957245;28;20865;-51
2022/08/13 07:21:40;;;;;;;0.87;0.70;;;;;;;23.89;48.24;100289.25;4944452;28;20456;-50
2022/08/13 07:24:10;;;;;;;0.77;0.60;;;;;;;24.00;47.60;100286.50;4957270;28;20451;-50
2022/08/13 07:27:05;;;;;;;0.90;0.77;;;;;;;24.22;47.53;100277.38;4957139;28;20459;-50
2022/08/13 07:29:37;;;;;;;1.97;1.70;;;;;;;24.19;47.87;100283.06;4945531;29;20534;-51
2022/08/13 07:32:18;;;;;;;1.03;0.93;;;;;;;24.37;47.31;100286.94;4945889;29;20450;-50
2022/08/13 07:34:46;;;;;;;3.37;0.70;;;;;;;24.82;45.83;100278.53;4943958;29;20919;-50
2022/08/13 07:37:20;;;;;;;2.97;0.70;;;;;;;25.00;46.40;100279.63;4956903;28;20451;-50
2022/08/13 07:39:49;;;;;;;12.30;1.03;;;;;;;25.55;44.47;100276.53;4954181;28;20456;-50
2022/08/13 07:42:20;;;;;;;0.80;0.70;;;;;;;25.29;45.16;100276.16;4947533;29;20986;-50
2022/08/13 07:45:00;;;;;;;1.13;1.03;;;;;;;25.44;45.28;100282.06;4956893;28;20467;-52
2022/08/13 07:47:50;;;;;;;0.97;0.83;;;;;;;26.11;43.90;100284.91;4943102;29;20805;-50
2022/08/13 07:50:38;;;;;;;0.70;0.53;;;;;;;26.42;42.86;100277.47;4957059;28;20450;-51
2022/08/13 07:53:07;;;;;;;0.93;0.83;;;;;;;26.14;43.27;100276.44;4951133;28;20456;-50
2022/08/13 07:55:34;;;;;;;0.90;0.60;;;;;;;26.65;42.03;100275.28;4949748;29;20503;-51
2022/08/13 07:58:27;;;;;;;0.80;0.70;;;;;;;26.70;42.40;100269.38;4946309;28;20447;-50
2022/08/13 08:00:57;;;;;;;0.80;0.70;;;;;;;26.68;41.75;100276.84;4943748;29;20451;-50
2022/08/13 08:03:28;;;;;;;0.87;0.87;;;;;;;26.42;42.50;100274.72;4956986;28;20528;-51
2022/08/13 08:06:18;;;;;;;0.77;0.63;;;;;;;26.83;41.39;100275.34;4944021;29;20933;-51
2022/08/13 08:08:56;;;;;;;0.80;0.60;;;;;;;27.09;40.63;100268.25;4942159;29;20511;-50
2022/08/13 08:14:18;;;;;;;2.70;1.10;;;;;;;27.08;40.35;100269.25;4950544;28;20543;-50
2022/08/13 08:16:59;;;;;;;5.40;0.63;;;;;;;27.24;39.94;100263.16;4951413;29;20459;-50
2022/08/13 08:19:50;;;;;;;0.60;0.50;;;;;;;27.18;39.90;100265.63;4956084;29;20831;-50
2022/08/13 08:22:45;;;;;;;0.80;0.60;;;;;;;27.06;39.71;100265.84;4944494;29;20451;-50
2022/08/13 08:25:17;;;;;;;0.87;0.87;;;;;;;27.26;39.91;100261.13;4940162;29;20463;-50
2022/08/13 08:27:48;;;;;;;1.00;0.90;;;;;;;27.32;39.44;100260.53;4956093;28;20447;-50
2022/08/13 08:30:37;;;;;;;0.70;0.60;;;;;;;27.30;39.30;100264.44;4943467;28;20463;-50
2022/08/13 08:33:25;;;;;;;0.60;0.50;;;;;;;27.16;39.36;100271.25;4955955;29;20451;-50
2022/08/13 08:36:12;;;;;;;1.13;0.90;;;;;;;27.45;39.68;100265.63;4943207;28;20496;-50
2022/08/13 08:44:34;;;;;;;0.73;0.63;;;;;;;27.14;39.31;100263.22;4955717;28;20450;-50
2022/08/13 08:47:01;;;;;;;4.80;0.83;;;;;;;27.62;39.00;100264.81;4947521;28;20837;-50
2022/08/13 08:49:36;;;;;;;0.70;0.67;;;;;;;27.88;38.54;100264.06;4952294;29;20798;-49
2022/08/13 08:52:11;;;;;;;4.10;0.80;;;;;;;27.95;38.37;100256.97;4950120;28;20846;-50
2022/08/13 08:54:43;;;;;;;0.87;0.53;;;;;;;27.72;38.80;100262.91;4949418;29;20487;-50
2022/08/13 08:57:13;;;;;;;0.97;0.90;;;;;;;27.57;38.98;100269.03;4950216;28;20450;-52
2022/08/13 08:59:42;;;;;;;3.17;0.70;;;;;;;27.67;38.77;100257.03;4944699;29;20452;-50
2022/08/13 09:02:19;;;;;;;0.73;0.50;;;;;;;27.32;39.24;100256.94;4950859;29;20459;-51
2022/08/13 09:04:53;;;;;;;28.50;1.33;;;;;;;27.77;38.53;100247.91;4955434;28;20474;-50
2022/08/13 09:07:28;;;;;;;0.77;0.70;;;;;;;27.67;38.96;100254.28;4941950;29;20571;-50
2022/08/13 09:09:58;;;;;;;2.40;1.10;;;;;;;27.76;38.51;100247.03;4944890;29;20535;-50
2022/08/13 09:12:26;;;;;;;0.77;0.77;;;;;;;27.87;38.05;100244.09;4947244;28;20538;-50
2022/08/13 09:14:56;;;;;;;0.80;0.73;;;;;;;28.08;38.17;100246.50;4946025;28;20476;-50
2022/08/13 09:17:24;;;;;;;1.87;0.80;;;;;;;28.02;37.44;100245.25;4949290;29;20504;-50
2022/08/13 09:20:12;;;;;;;2.43;0.80;;;;;;;27.89;38.20;100250.25;4950893;29;20447;-50
2022/08/13 09:22:41;;;;;;;0.80;0.60;;;;;;;27.88;37.76;100251.28;4955262;29;20451;-50
2022/08/13 09:25:18;;;;;;;1.03;0.70;;;;;;;28.24;37.98;100243.91;4941960;29;20467;-52
2022/08/13 09:27:46;;;;;;;0.60;0.50;;;;;;;28.22;36.85;100247.78;4955149;28;20455;-50
2022/08/13 09:30:32;;;;;;;0.80;0.73;;;;;;;28.38;37.64;100234.31;4946473;29;20857;-50
2022/08/13 09:33:04;;;;;;;1.80;0.93;;;;;;;28.51;37.21;100236.59;4942113;28;20515;-50
2022/08/13 09:35:32;;;;;;;0.97;0.87;;;;;;;28.48;37.02;100237.78;4954536;28;20565;-50
2022/08/13 09:38:04;;;;;;;1.10;1.00;;;;;;;28.81;36.15;100233.38;4951869;29;20833;-50
2022/08/13 09:40:32;;;;;;;1.00;0.80;;;;;;;28.87;36.45;100232.75;4945310;29;20459;-50
2022/08/13 09:43:19;;;;;;;0.90;0.80;;;;;;;28.36;36.37;100230.00;4955012;28;20447;-51
2022/08/13 09:46:07;;;;;;;0.80;0.73;;;;;;;28.71;36.02;100229.91;4940709;28;20496;-50
2022/08/13 09:48:34;;;;;;;0.70;0.70;;;;;;;28.48;36.67;100220.50;4954810;28;20447;-50
2022/08/13 09:51:09;;;;;;;0.70;0.60;;;;;;;28.29;36.19;100222.44;4954710;28;20458;-50
2022/08/13 09:53:56;;;;;;;0.87;0.77;;;;;;;28.61;36.09;100219.06;4942735;28;20445;-50
2022/08/13 09:56:22;;;;;;;0.83;0.67;;;;;;;28.60;35.93;100211.88;4959013;28;20489;-50
2022/08/13 09:58:52;;;;;;;0.70;0.60;;;;;;;28.94;36.02;100221.16;4957461;28;20536;-51
2022/08/13 10:01:21;;;;;;;2.00;1.90;;;;;;;29.05;35.34;100215.38;4946244;29;20463;-49
2022/08/13 10:04:08;;;;;;;1.03;0.93;;;;;;;29.31;35.10;100207.09;4943694;29;20440;-50
2022/08/13 10:06:38;;;;;;;1.00;0.90;;;;;;;29.47;34.60;100210.78;4944079;29;20487;-50
2022/08/13 10:09:08;;;;;;;2.50;0.80;;;;;;;29.22;34.98;100202.63;4953227;29;20450;-50
2022/08/13 10:11:37;;;;;;;0.80;0.70;;;;;;;29.11;34.79;100215.59;4950224;28;20485;-50
2022/08/13 10:14:24;;;;;;;0.80;0.73;;;;;;;29.16;34.56;100206.88;4941392;29;20851;-50
2022/08/13 10:16:53;;;;;;;0.80;0.70;;;;;;;29.31;34.87;100202.47;4949524;29;20498;-52
2022/08/13 10:19:21;;;;;;;0.70;0.67;;;;;;;29.63;34.42;100189.91;4954269;28;20550;-52
2022/08/13 10:21:47;;;;;;;6.50;0.80;;;;;;;29.38;34.20;100197.19;4941476;28;20458;-51
2022/08/13 10:24:18;;;;;;;1.30;1.13;;;;;;;29.19;34.24;100196.47;4954287;28;20953;-52
2022/08/13 10:26:47;;;;;;;1.10;0.70;;;;;;;29.43;34.41;100189.31;4953800;29;20846;-51
2022/08/13 10:29:15;;;;;;;0.93;0.87;;;;;;;29.17;34.91;100184.78;4945012;29;20452;-53
2022/08/13 10:32:06;;;;;;;0.70;0.53;;;;;;;29.19;33.27;100182.78;4953248;28;20458;-53
2022/08/13 10:34:43;;;;;;;0.83;0.80;;;;;;;29.43;33.78;100178.38;4957645;28;20451;-53
2022/08/13 10:37:22;;;;;;;1.10;0.93;;;;;;;29.45;34.01;100181.78;4947811;29;20524;-53
2022/08/13 10:39:48;;;;;;;0.70;0.50;;;;;;;29.52;33.09;100177.41;4958481;28;20561;-53
2022/08/13 10:42:19;;;;;;;0.97;0.60;;;;;;;29.78;33.33;100169.91;4948052;28;20460;-54
2022/08/13 10:44:48;;;;;;;0.60;0.50;;;;;;;29.61;33.00;100172.81;4954617;28;21019;-54
2022/08/13 10:47:14;;;;;;;1.53;0.90;;;;;;;29.77;32.97;100170.06;4958012;28;20459;-55
2022/08/13 10:50:01;;;;;;;26.67;1.20;;;;;;;29.47;33.09;100163.38;4945890;29;20459;-54
2022/08/13 10:52:28;;;;;;;5.63;0.60;;;;;;;29.59;33.71;100174.81;4956760;28;20451;-53
2022/08/13 10:55:12;;;;;;;6.43;1.13;;;;;;;29.40;34.05;100165.88;4950063;28;20471;-54
2022/08/13 10:57:45;;;;;;;1.40;1.30;;;;;;;29.92;33.67;100167.50;4969058;28;20967;-54
2022/08/13 11:00:32;;;;;;;2.10;0.83;;;;;;;29.63;32.58;100168.84;4944814;29;20459;-53
2022/08/13 11:02:58;;;;;;;0.77;0.70;;;;;;;29.55;33.20;100160.63;4957571;28;20944;-53
2022/08/13 11:05:26;;;;;;;21.93;0.97;;;;;;;29.82;33.50;100161.31;4955972;28;20502;-53
2022/08/13 11:07:53;;;;;;;1.00;0.90;;;;;;;29.98;32.97;100156.69;4946386;29;21007;-54
2022/08/13 11:10:21;;;;;;;0.90;0.80;;;;;;;29.83;31.58;100163.03;4957642;28;20455;-54
2022/08/13 11:12:52;;;;;;;0.70;0.60;;;;;;;29.91;31.79;100163.03;4948969;28;20460;-53
2022/08/13 11:15:27;;;;;;;2.20;1.37;;;;;;;29.75;33.04;100155.69;4954719;29;20479;-53
2022/08/13 11:18:11;;;;;;;0.67;0.53;;;;;;;29.38;33.54;100167.06;4957677;29;20447;-53
2022/08/13 11:21:02;;;;;;;0.70;0.60;;;;;;;29.74;33.30;100142.97;4944515;29;20968;-53
2022/08/13 11:23:25;;;;;;;5.23;1.00;;;;;;;30.24;32.43;100145.56;4957022;28;20451;-54
2022/08/13 11:25:52;;;;;;;0.60;0.47;;;;;;;30.17;31.99;100150.03;4949124;28;20475;-53
2022/08/13 11:28:38;;;;;;;1.47;1.37;;;;;;;30.42;31.36;100150.81;4952048;28;20452;-53
2022/08/13 11:31:05;;;;;;;0.60;0.53;;;;;;;30.27;31.26;100147.09;4949675;29;20459;-53
2022/08/13 11:33:32;;;;;;;0.80;0.70;;;;;;;30.54;31.75;100143.06;4957254;28;20451;-53
2022/08/13 11:36:18;;;;;;;0.70;0.70;;;;;;;30.56;31.63;100149.22;4944203;28;20488;-54
2022/08/13 11:38:46;;;;;;;3.90;1.30;;;;;;;30.24;31.48;100139.22;4956586;28;20542;-53
2022/08/13 11:41:13;;;;;;;2.77;1.43;;;;;;;30.25;32.56;100149.16;4954861;28;20459;-53
2022/08/13 11:43:45;;;;;;;0.60;0.50;;;;;;;30.00;31.90;100140.06;4946521;28;20491;-54
2022/08/13 11:46:23;;;;;;;1.10;1.00;;;;;;;29.90;32.06;100128.44;4956457;28;20466;-54
2022/08/13 11:48:50;;;;;;;0.60;0.57;;;;;;;29.84;32.44;100131.84;4946069;28;20460;-53
2022/08/13 11:51:36;;;;;;;1.00;0.87;;;;;;;30.38;31.35;100128.38;4944763;29;20487;-54
2022/08/13 11:54:19;;;;;;;2.63;0.87;;;;;;;30.34;30.69;100126.16;4943869;29;20452;-54
2022/08/13 11:56:59;;;;;;;0.73;0.73;;;;;;;30.43;31.45;100119.63;4966170;28;20869;-54
2022/08/13 11:59:25;;;;;;;0.60;0.60;;;;;;;30.42;31.89;100117.03;4953952;28;20458;-54
2022/08/13 12:02:06;;;;;;;0.80;0.80;;;;;;;30.17;31.85;100111.63;4948484;29;20443;-52
2022/08/13 12:04:44;;;;;;;0.77;0.77;;;;;;;30.54;31.23;100111.00;4950242;28;20958;-53
2022/08/13 12:07:20;;;;;;;1.00;0.90;;;;;;;30.37;31.10;100114.84;4950294;29;20459;-53
2022/08/13 12:09:46;;;;;;;0.90;0.80;;;;;;;30.48;30.32;100108.13;4946584;29;20457;-52
2022/08/13 12:12:17;;;;;;;0.60;0.53;;;;;;;30.48;30.38;100111.72;4956591;28;20530;-54
2022/08/13 12:14:51;;;;;;;1.30;1.20;;;;;;;30.59;30.25;100105.84;4945941;28;20472;-54
2022/08/13 12:17:19;;;;;;;1.73;1.13;;;;;;;30.98;29.12;100112.38;4954688;29;20578;-54
2022/08/13 12:20:08;;;;;;;3.50;0.70;;;;;;;30.88;29.57;100099.75;4955227;29;20452;-54